Patterson, Idaho
Current Conditions -  °F | °C
As of 10:55 PM on Saturday 22 Nov 2014 (Local Time) from KLLJ Reporting Station
Overcast Overcast  
Wind Chill: 30°   Ceiling: 7000
Heat Index: 30°   Visibility: 10mi
Dew Point: 22°   Wind: 3mph
Humidity: 72%   Direction: 350°N
Pressure: 29.82"   Gusts: NA
Location:  44.6701°N, 113.812°W
Report Text: KLLJ 230555Z AUTO 35003KT 10SM BKN070 OVC080 M01/M06 A2982 RMK AO2 SLP104 T10111056 10022 21028 53018
Loading
Personal Weather Stations






























Interactive Weather Map New forecast layout! Learn more

10-Day Weather Forecast

Advertisements
Track Severe Weather on mobile